createdAt,value
2017-06-17T00:00:46.142Z,1017.92
2017-06-17T00:01:40.983Z,1017.91
2017-06-17T00:02:40.958Z,1017.91
2017-06-17T00:03:36.000Z,1017.91
2017-06-17T00:04:36.073Z,1017.89
2017-06-17T00:05:31.060Z,1017.94
2017-06-17T00:06:26.095Z,1017.94
2017-06-17T00:07:20.207Z,1017.90
2017-06-17T00:08:08.182Z,1017.92
2017-06-17T00:08:56.269Z,1017.91
2017-06-17T00:09:51.372Z,1017.97
2017-06-17T00:10:39.733Z,1017.92
2017-06-17T00:11:27.383Z,1017.94
2017-06-17T00:12:15.429Z,1017.93
2017-06-17T00:13:03.430Z,1017.92
2017-06-17T00:13:51.536Z,1017.92
2017-06-17T00:14:40.506Z,1017.95
2017-06-17T00:15:29.014Z,1017.93
2017-06-17T00:16:16.595Z,1017.94
2017-06-17T00:17:16.639Z,1017.96
2017-06-17T00:18:16.677Z,1018.01
2017-06-17T00:19:04.718Z,1018.01
2017-06-17T00:20:04.789Z,1018.03
2017-06-17T00:20:59.775Z,1018.05
2017-06-17T00:21:53.814Z,1018.06
2017-06-17T00:22:53.836Z,1018.05
2017-06-17T00:23:48.834Z,1018.00
2017-06-17T00:24:43.900Z,1018.06
2017-06-17T00:25:45.018Z,1018.06
2017-06-17T00:26:45.154Z,1018.06
2017-06-17T00:27:44.980Z,1018.02
2017-06-17T00:28:40.078Z,1018.06
2017-06-17T00:29:34.088Z,1018.04
2017-06-17T00:30:34.114Z,1018.06
2017-06-17T00:31:29.139Z,1018.04
2017-06-17T00:32:29.161Z,1018.07
2017-06-17T00:33:23.196Z,1018.06
2017-06-17T00:34:23.268Z,1018.03
2017-06-17T00:35:18.283Z,1018.05
2017-06-17T00:36:13.332Z,1018.05
2017-06-17T00:37:13.359Z,1018.07
2017-06-17T00:38:08.412Z,1018.04
2017-06-17T00:38:57.443Z,1018.08
2017-06-17T00:39:51.424Z,1018.09
2017-06-17T00:40:40.516Z,1018.12
2017-06-17T00:41:35.531Z,1018.10
2017-06-17T00:42:35.527Z,1018.10
2017-06-17T00:43:30.646Z,1018.11
2017-06-17T00:44:25.610Z,1018.12
2017-06-17T00:45:26.642Z,1018.09
2017-06-17T00:46:27.689Z,1018.13
2017-06-17T00:47:27.697Z,1018.12
2017-06-17T00:48:28.761Z,1018.13
2017-06-17T00:49:22.773Z,1018.16
2017-06-17T00:50:22.808Z,1018.13
2017-06-17T00:51:16.817Z,1018.13
2017-06-17T00:52:18.136Z,1018.17
2017-06-17T00:53:06.871Z,1018.14
2017-06-17T00:54:06.929Z,1018.17
2017-06-17T00:55:07.978Z,1018.14
2017-06-17T00:56:09.021Z,1018.14
2017-06-17T00:57:03.067Z,1018.14
2017-06-17T00:58:03.072Z,1018.16
2017-06-17T00:58:58.111Z,1018.10
2017-06-17T00:59:53.178Z,1018.11
2017-06-17T01:00:54.232Z,1018.15
2017-06-17T01:01:55.172Z,1018.13
2017-06-17T01:02:50.250Z,1018.17
2017-06-17T01:03:44.272Z,1018.20
2017-06-17T01:04:44.304Z,1018.19
2017-06-17T01:05:44.355Z,1018.25
2017-06-17T01:06:39.394Z,1018.18
2017-06-17T01:07:28.389Z,1018.19
2017-06-17T01:08:22.466Z,1018.25
2017-06-17T01:09:17.494Z,1018.21
2017-06-17T01:10:11.540Z,1018.18
2017-06-17T01:10:59.568Z,1018.19
2017-06-17T01:11:54.631Z,1018.20
2017-06-17T01:12:48.654Z,1018.15
2017-06-17T01:13:48.744Z,1018.17
2017-06-17T01:14:43.687Z,1018.15
2017-06-17T01:15:38.779Z,1018.10
2017-06-17T01:16:38.799Z,1018.13
2017-06-17T01:17:33.896Z,1018.12
2017-06-17T01:18:28.864Z,1018.16
2017-06-17T01:19:16.871Z,1018.15
2017-06-17T01:20:12.182Z,1018.15
2017-06-17T01:21:00.994Z,1018.16
2017-06-17T01:21:49.021Z,1018.14
2017-06-17T01:22:49.107Z,1018.15
2017-06-17T01:23:43.056Z,1018.10
2017-06-17T01:24:38.108Z,1018.15
2017-06-17T01:25:32.313Z,1018.11
2017-06-17T01:26:32.166Z,1018.12
2017-06-17T01:27:21.321Z,1018.14
2017-06-17T01:28:15.593Z,1018.15
2017-06-17T01:29:10.370Z,1018.14
2017-06-17T01:30:05.775Z,1018.11
2017-06-17T01:30:53.300Z,1018.15
2017-06-17T01:31:42.429Z,1018.15
2017-06-17T01:32:30.902Z,1018.16
2017-06-17T01:33:18.573Z,1018.17
2017-06-17T01:34:07.505Z,1018.14
2017-06-17T01:34:55.600Z,1018.15
2017-06-17T01:35:43.602Z,1018.19
2017-06-17T01:36:32.930Z,1018.21
2017-06-17T01:37:27.716Z,1018.14
2017-06-17T01:38:21.755Z,1018.19
2017-06-17T01:39:21.765Z,1018.15
2017-06-17T01:40:10.806Z,1018.20
2017-06-17T01:41:04.872Z,1018.20
2017-06-17T01:42:04.917Z,1018.20
2017-06-17T01:43:04.907Z,1018.22
2017-06-17T01:43:59.982Z,1018.22
2017-06-17T01:44:53.983Z,1018.16
2017-06-17T01:45:43.066Z,1018.19
2017-06-17T01:46:38.088Z,1018.20
2017-06-17T01:47:32.127Z,1018.22
2017-06-17T01:48:27.177Z,1018.24
2017-06-17T01:49:27.251Z,1018.21
2017-06-17T01:50:16.632Z,1018.22
2017-06-17T01:51:05.276Z,1018.21
2017-06-17T01:51:53.299Z,1018.21
2017-06-17T01:52:42.352Z,1018.16
2017-06-17T01:53:31.377Z,1018.17
2017-06-17T01:54:19.418Z,1018.20
2017-06-17T01:55:08.502Z,1018.17
2017-06-17T01:55:57.503Z,1018.21
2017-06-17T01:56:51.565Z,1018.18
2017-06-17T01:57:40.648Z,1018.17
2017-06-17T01:58:28.675Z,1018.15
2017-06-17T01:59:17.715Z,1018.11
2017-06-17T02:00:12.801Z,1018.15
2017-06-17T02:01:12.769Z,1018.14
2017-06-17T02:02:07.803Z,1018.09
2017-06-17T02:03:01.864Z,1018.12
2017-06-17T02:03:50.875Z,1018.08
2017-06-17T02:04:38.903Z,1018.11
2017-06-17T02:05:34.056Z,1018.11
2017-06-17T02:06:22.989Z,1018.12
2017-06-17T02:07:23.033Z,1018.13
2017-06-17T02:08:23.202Z,1018.10
2017-06-17T02:09:12.115Z,1018.15
2017-06-17T02:10:07.193Z,1018.17
2017-06-17T02:11:07.468Z,1018.17
2017-06-17T02:12:02.238Z,1018.14
2017-06-17T02:12:50.272Z,1018.08
2017-06-17T02:13:45.287Z,1018.09
2017-06-17T02:14:40.353Z,1018.09
2017-06-17T02:15:28.420Z,1018.08
2017-06-17T02:16:16.420Z,1018.12
2017-06-17T02:17:10.459Z,1018.11
2017-06-17T02:18:04.476Z,1018.12
2017-06-17T02:18:52.510Z,1018.07
2017-06-17T02:19:46.590Z,1018.08
2017-06-17T02:20:40.675Z,1018.08
2017-06-17T02:21:41.684Z,1018.02
2017-06-17T02:22:35.691Z,1017.97
2017-06-17T02:23:29.689Z,1017.96
2017-06-17T02:24:24.745Z,1017.94
2017-06-17T02:25:13.759Z,1017.93
2017-06-17T02:26:07.868Z,1017.92
2017-06-17T02:26:57.086Z,1017.94
2017-06-17T02:27:50.901Z,1017.97
2017-06-17T02:28:45.885Z,1017.98
2017-06-17T02:29:47.004Z,1018.00
2017-06-17T02:30:40.984Z,1017.94
2017-06-17T02:31:35.104Z,1017.89
2017-06-17T02:32:35.093Z,1017.91
2017-06-17T02:33:29.111Z,1017.91
2017-06-17T02:34:18.194Z,1017.93
2017-06-17T02:35:18.210Z,1017.90
2017-06-17T02:36:07.270Z,1017.92
2017-06-17T02:37:02.310Z,1017.95
2017-06-17T02:38:02.414Z,1017.90
2017-06-17T02:38:56.391Z,1017.87
2017-06-17T02:39:50.432Z,1017.89
2017-06-17T02:40:39.476Z,1017.87
2017-06-17T02:41:39.520Z,1017.82
2017-06-17T02:42:34.516Z,1017.83
2017-06-17T02:43:34.558Z,1017.87
2017-06-17T02:44:29.040Z,1017.88
2017-06-17T02:45:22.595Z,1017.85
2017-06-17T02:46:17.669Z,1017.85
2017-06-17T02:47:06.706Z,1017.84
2017-06-17T02:48:00.772Z,1017.84
2017-06-17T02:48:55.803Z,1017.84
2017-06-17T02:49:50.798Z,1017.84
2017-06-17T02:50:45.821Z,1017.82
2017-06-17T02:51:39.864Z,1017.85
2017-06-17T02:52:28.278Z,1017.81
2017-06-17T02:53:22.992Z,1017.82
2017-06-17T02:54:17.165Z,1017.78
2017-06-17T02:55:11.507Z,1017.78
2017-06-17T02:56:11.140Z,1017.82
2017-06-17T02:57:06.110Z,1017.88
2017-06-17T02:58:00.174Z,1017.82
2017-06-17T02:58:48.201Z,1017.86
2017-06-17T02:59:42.231Z,1017.87
2017-06-17T03:00:31.319Z,1017.85
2017-06-17T03:01:25.408Z,1017.80
2017-06-17T03:02:19.379Z,1017.83
2017-06-17T03:03:13.413Z,1017.86
2017-06-17T03:04:13.458Z,1017.85
2017-06-17T03:05:02.521Z,1017.88
2017-06-17T03:05:51.509Z,1017.86
2017-06-17T03:06:45.559Z,1017.89
2017-06-17T03:07:39.760Z,1017.90
2017-06-17T03:08:33.680Z,1017.90
2017-06-17T03:09:33.662Z,1017.92
2017-06-17T03:10:22.780Z,1017.94
2017-06-17T03:11:22.758Z,1017.93
2017-06-17T03:12:16.818Z,1017.93
2017-06-17T03:13:04.797Z,1017.92
2017-06-17T03:14:04.858Z,1017.95
2017-06-17T03:14:59.902Z,1017.97
2017-06-17T03:15:53.981Z,1017.95
2017-06-17T03:16:47.972Z,1017.99
2017-06-17T03:17:41.982Z,1017.98
2017-06-17T03:18:36.086Z,1018.02
2017-06-17T03:19:24.135Z,1017.99
2017-06-17T03:20:19.186Z,1018.01
2017-06-17T03:21:14.229Z,1018.01
2017-06-17T03:22:08.554Z,1017.99
2017-06-17T03:22:57.255Z,1017.99
2017-06-17T03:23:52.300Z,1018.00
2017-06-17T03:24:46.337Z,1018.00
2017-06-17T03:25:41.836Z,1018.01
2017-06-17T03:26:29.628Z,1017.97
2017-06-17T03:27:23.666Z,1017.97
2017-06-17T03:28:17.501Z,1018.00
2017-06-17T03:29:06.526Z,1017.95
2017-06-17T03:29:54.585Z,1018.01
2017-06-17T03:30:54.599Z,1018.03
2017-06-17T03:31:43.704Z,1018.03
2017-06-17T03:32:31.733Z,1018.06
2017-06-17T03:33:31.774Z,1018.02
2017-06-17T03:34:25.789Z,1018.02
2017-06-17T03:35:25.807Z,1018.04
2017-06-17T03:36:14.871Z,1018.03
2017-06-17T03:37:09.909Z,1017.98
2017-06-17T03:38:10.074Z,1017.99
2017-06-17T03:38:59.387Z,1017.94
2017-06-17T03:39:53.024Z,1017.96
2017-06-17T03:40:53.089Z,1017.96
2017-06-17T03:41:42.123Z,1017.93
2017-06-17T03:42:30.217Z,1017.93
2017-06-17T03:43:30.185Z,1017.93
2017-06-17T03:44:24.209Z,1017.92
2017-06-17T03:45:12.420Z,1017.92
2017-06-17T03:46:13.301Z,1017.92
2017-06-17T03:47:08.304Z,1017.84
2017-06-17T03:48:03.394Z,1017.87
2017-06-17T03:48:57.740Z,1017.87
2017-06-17T03:49:52.730Z,1017.84
2017-06-17T03:50:41.492Z,1017.85
2017-06-17T03:51:41.498Z,1017.88
2017-06-17T03:52:36.565Z,1017.87
2017-06-17T03:53:37.617Z,1017.88
2017-06-17T03:54:37.903Z,1017.89
2017-06-17T03:55:32.694Z,1017.91
2017-06-17T03:56:27.134Z,1017.94
2017-06-17T03:57:21.089Z,1017.98
2017-06-17T03:58:16.179Z,1017.99
2017-06-17T03:59:11.251Z,1018.01
2017-06-17T03:59:59.229Z,1017.99
2017-06-17T04:00:58.919Z,1018.00
2017-06-17T04:01:59.172Z,1018.02
2017-06-17T04:02:54.227Z,1017.99
2017-06-17T04:03:43.390Z,1017.96
2017-06-17T04:04:32.439Z,1017.96
2017-06-17T04:05:26.133Z,1017.94
2017-06-17T04:06:26.182Z,1017.96
2017-06-17T04:07:26.167Z,1017.91
2017-06-17T04:08:20.215Z,1017.90
2017-06-17T04:09:15.306Z,1017.92
2017-06-17T04:10:09.854Z,1017.96
2017-06-17T04:11:03.307Z,1017.97
2017-06-17T04:11:52.402Z,1017.89
2017-06-17T04:12:40.416Z,1017.93
2017-06-17T04:13:34.867Z,1017.97
2017-06-17T04:14:23.911Z,1018.01
2017-06-17T04:15:17.667Z,1018.02
2017-06-17T04:16:11.601Z,1017.97
2017-06-17T04:17:00.674Z,1018.00
2017-06-17T04:17:48.696Z,1018.01
2017-06-17T04:18:37.711Z,1018.08
2017-06-17T04:19:25.787Z,1018.08
2017-06-17T04:20:14.021Z,1018.11
2017-06-17T04:21:02.891Z,1018.16
2017-06-17T04:21:51.131Z,1018.16
2017-06-17T04:22:45.205Z,1018.13
2017-06-17T04:23:39.007Z,1018.13
2017-06-17T04:24:27.508Z,1018.11
2017-06-17T04:25:16.159Z,1018.10
2017-06-17T04:26:11.120Z,1018.07
2017-06-17T04:27:05.190Z,1018.15
2017-06-17T04:28:06.201Z,1018.10
2017-06-17T04:29:01.509Z,1018.11
2017-06-17T04:30:01.711Z,1018.09
2017-06-17T04:31:07.472Z,1018.09
2017-06-17T04:32:02.403Z,1018.06
2017-06-17T04:32:56.366Z,1018.06
2017-06-17T04:33:56.710Z,1018.09
2017-06-17T04:34:51.873Z,1018.06
2017-06-17T04:35:46.555Z,1018.09
2017-06-17T04:36:46.546Z,1018.08
2017-06-17T04:37:41.589Z,1018.13
2017-06-17T04:38:36.627Z,1018.11
2017-06-17T04:39:30.670Z,1018.08
2017-06-17T04:40:31.715Z,1018.10
2017-06-17T04:41:26.749Z,1018.09
2017-06-17T04:42:26.795Z,1018.07
2017-06-17T04:43:26.780Z,1018.18
2017-06-17T04:44:27.278Z,1018.15
2017-06-17T04:45:27.215Z,1018.21
2017-06-17T04:46:26.936Z,1018.21
2017-06-17T04:47:27.201Z,1018.24
2017-06-17T04:48:27.471Z,1018.22
2017-06-17T04:49:27.031Z,1018.21
2017-06-17T04:50:27.044Z,1018.13
2017-06-17T04:51:27.470Z,1018.19
2017-06-17T04:52:27.567Z,1018.20
2017-06-17T04:53:27.480Z,1018.19
2017-06-17T04:54:21.678Z,1018.20
2017-06-17T04:55:21.670Z,1018.24
2017-06-17T04:56:16.325Z,1018.25
2017-06-17T04:57:11.289Z,1018.25
2017-06-17T04:58:00.358Z,1018.24
2017-06-17T04:58:49.411Z,1018.26
2017-06-17T04:59:43.463Z,1018.24
2017-06-17T05:00:43.508Z,1018.28
2017-06-17T05:01:38.504Z,1018.25
2017-06-17T05:02:38.595Z,1018.29
2017-06-17T05:03:33.610Z,1018.30
2017-06-17T05:04:28.695Z,1018.25
2017-06-17T05:05:22.697Z,1018.29
2017-06-17T05:06:23.789Z,1018.28
2017-06-17T05:07:23.763Z,1018.34
2017-06-17T05:08:18.806Z,1018.35
2017-06-17T05:09:24.803Z,1018.29
2017-06-17T05:10:25.151Z,1018.32
2017-06-17T05:11:26.270Z,1018.30
2017-06-17T05:12:27.370Z,1018.31
2017-06-17T05:13:27.321Z,1018.34
2017-06-17T05:14:27.367Z,1018.34
2017-06-17T05:15:21.440Z,1018.34
2017-06-17T05:16:21.427Z,1018.34
2017-06-17T05:17:15.882Z,1018.34
2017-06-17T05:18:15.510Z,1018.35
2017-06-17T05:19:04.600Z,1018.37
2017-06-17T05:19:53.628Z,1018.29
2017-06-17T05:20:47.716Z,1018.34
2017-06-17T05:21:47.752Z,1018.33
2017-06-17T05:22:37.362Z,1018.32
2017-06-17T05:23:30.405Z,1018.32
2017-06-17T05:24:30.760Z,1018.32
2017-06-17T05:25:25.911Z,1018.30
2017-06-17T05:26:20.848Z,1018.26
2017-06-17T05:27:14.923Z,1018.29
2017-06-17T05:28:15.044Z,1018.30
2017-06-17T05:29:10.061Z,1018.27
2017-06-17T05:30:05.085Z,1018.31
2017-06-17T05:31:04.888Z,1018.32
2017-06-17T05:32:00.190Z,1018.29
2017-06-17T05:32:55.123Z,1018.32
2017-06-17T05:33:44.274Z,1018.31
2017-06-17T05:34:39.324Z,1018.34
2017-06-17T05:35:39.331Z,1018.38
2017-06-17T05:36:34.332Z,1018.38
2017-06-17T05:37:29.432Z,1018.40
2017-06-17T05:38:23.442Z,1018.40
2017-06-17T05:39:18.575Z,1018.44
2017-06-17T05:40:07.556Z,1018.43
2017-06-17T05:40:55.185Z,1018.44
2017-06-17T05:41:43.634Z,1018.42
2017-06-17T05:42:37.289Z,1018.45
2017-06-17T05:43:25.322Z,1018.43
2017-06-17T05:44:25.829Z,1018.49
2017-06-17T05:45:25.340Z,1018.50
2017-06-17T05:46:25.421Z,1018.47
2017-06-17T05:47:25.457Z,1018.45
2017-06-17T05:48:25.928Z,1018.48
2017-06-17T05:49:19.531Z,1018.45
2017-06-17T05:50:07.617Z,1018.46
2017-06-17T05:50:55.592Z,1018.47
2017-06-17T05:51:43.711Z,1018.51
2017-06-17T05:52:33.112Z,1018.44
2017-06-17T05:53:21.016Z,1018.45
2017-06-17T05:54:09.980Z,1018.50
2017-06-17T05:54:58.227Z,1018.49
2017-06-17T05:55:46.600Z,1018.47
2017-06-17T05:56:35.305Z,1018.48
2017-06-17T05:57:24.322Z,1018.48
2017-06-17T05:58:13.464Z,1018.45
2017-06-17T05:59:13.405Z,1018.46
2017-06-17T06:00:07.881Z,1018.45
2017-06-17T06:01:02.832Z,1018.50
2017-06-17T06:01:56.603Z,1018.46
2017-06-17T06:02:51.632Z,1018.46
2017-06-17T06:03:52.764Z,1018.52
2017-06-17T06:04:46.730Z,1018.54
2017-06-17T06:05:40.867Z,1018.52
2017-06-17T06:06:34.679Z,1018.55
2017-06-17T06:07:29.624Z,1018.53
2017-06-17T06:08:17.895Z,1018.55
2017-06-17T06:09:11.884Z,1018.59
2017-06-17T06:09:59.979Z,1018.60
2017-06-17T06:10:47.624Z,1018.59
2017-06-17T06:11:37.357Z,1018.70
2017-06-17T06:12:30.748Z,1018.67
2017-06-17T06:13:31.130Z,1018.67
2017-06-17T06:14:25.218Z,1018.66
2017-06-17T06:15:19.859Z,1018.64
2017-06-17T06:16:15.107Z,1018.66
2017-06-17T06:17:10.292Z,1018.64
2017-06-17T06:18:05.290Z,1018.62
2017-06-17T06:18:54.355Z,1018.64
2017-06-17T06:19:48.184Z,1018.61
2017-06-17T06:20:42.266Z,1018.61
2017-06-17T06:21:36.592Z,1018.65
2017-06-17T06:22:31.623Z,1018.64
2017-06-17T06:23:19.628Z,1018.63
2017-06-17T06:24:07.697Z,1018.65
2017-06-17T06:24:56.731Z,1018.66
2017-06-17T06:25:45.755Z,1018.61
2017-06-17T06:26:45.820Z,1018.63
2017-06-17T06:27:34.931Z,1018.65
2017-06-17T06:28:28.917Z,1018.59
2017-06-17T06:29:17.962Z,1018.62
2017-06-17T06:30:05.998Z,1018.62
2017-06-17T06:31:00.104Z,1018.57
2017-06-17T06:31:48.145Z,1018.54
2017-06-17T06:32:36.171Z,1018.58
2017-06-17T06:33:25.201Z,1018.60
2017-06-17T06:34:13.220Z,1018.60
2017-06-17T06:35:02.306Z,1018.60
2017-06-17T06:35:56.339Z,1018.65
2017-06-17T06:36:51.398Z,1018.60
2017-06-17T06:37:45.471Z,1018.59
2017-06-17T06:38:39.446Z,1018.61
2017-06-17T06:39:28.479Z,1018.61
2017-06-17T06:40:16.597Z,1018.60
2017-06-17T06:41:05.618Z,1018.59
2017-06-17T06:41:59.676Z,1018.57
2017-06-17T06:42:48.845Z,1018.56
2017-06-17T06:43:42.605Z,1018.56
2017-06-17T06:44:37.755Z,1018.53
2017-06-17T06:45:31.831Z,1018.46
2017-06-17T06:46:26.832Z,1018.49
2017-06-17T06:47:21.894Z,1018.58
2017-06-17T06:48:15.967Z,1018.52
2017-06-17T06:49:10.011Z,1018.57
2017-06-17T06:50:04.999Z,1018.57
2017-06-17T06:50:59.084Z,1018.63
2017-06-17T06:51:53.143Z,1018.59
2017-06-17T06:52:53.190Z,1018.57
2017-06-17T06:53:41.814Z,1018.57
2017-06-17T06:54:36.288Z,1018.57
2017-06-17T06:55:24.246Z,1018.61
2017-06-17T06:56:24.417Z,1018.60
2017-06-17T06:57:18.377Z,1018.60
2017-06-17T06:58:13.272Z,1018.65
2017-06-17T06:59:13.557Z,1018.70
2017-06-17T07:00:02.238Z,1018.68
2017-06-17T07:00:51.269Z,1018.64
2017-06-17T07:01:45.210Z,1018.68
2017-06-17T07:02:33.392Z,1018.73
2017-06-17T07:03:33.681Z,1018.69
2017-06-17T07:04:21.609Z,1018.73
2017-06-17T07:05:10.392Z,1018.77
2017-06-17T07:05:58.804Z,1018.74
2017-06-17T07:06:47.522Z,1018.78
2017-06-17T07:07:41.593Z,1018.72
2017-06-17T07:08:36.594Z,1018.73
2017-06-17T07:09:25.641Z,1018.71
2017-06-17T07:10:15.195Z,1018.76
2017-06-17T07:11:10.081Z,1018.73
2017-06-17T07:11:59.104Z,1018.76
2017-06-17T07:12:48.234Z,1018.74
2017-06-17T07:13:43.279Z,1018.78
2017-06-17T07:14:37.399Z,1018.78
2017-06-17T07:15:37.365Z,1018.72
2017-06-17T07:16:26.387Z,1018.75
2017-06-17T07:17:15.460Z,1018.75
2017-06-17T07:18:15.466Z,1018.75
2017-06-17T07:19:09.522Z,1018.77
2017-06-17T07:20:09.586Z,1018.75
2017-06-17T07:21:03.635Z,1018.77
2017-06-17T07:21:57.651Z,1018.74
2017-06-17T07:22:57.726Z,1018.76
2017-06-17T07:23:45.746Z,1018.82
2017-06-17T07:24:33.764Z,1018.81
2017-06-17T07:25:21.815Z,1018.82
2017-06-17T07:26:10.928Z,1018.85
2017-06-17T07:26:58.954Z,1018.84
2017-06-17T07:27:48.032Z,1018.88
2017-06-17T07:28:36.025Z,1018.86
2017-06-17T07:29:25.123Z,1018.81
2017-06-17T07:30:20.177Z,1018.83
2017-06-17T07:31:08.223Z,1018.83
2017-06-17T07:31:57.479Z,1018.82
2017-06-17T07:32:46.300Z,1018.88
2017-06-17T07:33:35.380Z,1018.88
2017-06-17T07:34:29.338Z,1018.85
2017-06-17T07:35:18.510Z,1018.85
2017-06-17T07:36:18.446Z,1018.88
2017-06-17T07:37:07.586Z,1018.89
2017-06-17T07:37:55.576Z,1018.87
2017-06-17T07:38:55.578Z,1018.92
2017-06-17T07:39:49.760Z,1018.90
2017-06-17T07:40:44.695Z,1018.89
2017-06-17T07:41:33.729Z,1018.88
2017-06-17T07:42:27.832Z,1018.93
2017-06-17T07:43:15.852Z,1018.95
2017-06-17T07:44:09.944Z,1018.98
2017-06-17T07:45:03.959Z,1018.95
2017-06-17T07:45:53.046Z,1018.94
2017-06-17T07:46:42.086Z,1018.92
2017-06-17T07:47:36.166Z,1018.95
2017-06-17T07:48:30.140Z,1018.98
2017-06-17T07:49:24.191Z,1019.01
2017-06-17T07:50:19.228Z,1019.03
2017-06-17T07:51:07.302Z,1019.07
2017-06-17T07:51:55.310Z,1019.05
2017-06-17T07:52:55.420Z,1019.02
2017-06-17T07:53:43.382Z,1019.08
2017-06-17T07:54:38.459Z,1019.07
2017-06-17T07:55:32.528Z,1019.08
2017-06-17T07:56:26.577Z,1019.06
2017-06-17T07:57:15.619Z,1019.00
2017-06-17T07:58:04.690Z,1019.13
2017-06-17T07:58:58.709Z,1019.13
2017-06-17T07:59:46.754Z,1019.15
2017-06-17T08:00:41.793Z,1019.07
2017-06-17T08:01:36.840Z,1019.07
2017-06-17T08:02:30.881Z,1019.04
2017-06-17T08:03:24.985Z,1019.10
2017-06-17T08:04:19.980Z,1019.08
2017-06-17T08:05:14.073Z,1019.10
2017-06-17T08:06:08.002Z,1019.06
2017-06-17T08:07:03.074Z,1019.02
2017-06-17T08:07:52.178Z,1019.02
2017-06-17T08:08:47.160Z,1019.02
2017-06-17T08:09:41.248Z,1019.01
2017-06-17T08:10:36.409Z,1019.02
2017-06-17T08:11:25.320Z,1019.05
2017-06-17T08:12:26.382Z,1019.00
2017-06-17T08:13:20.391Z,1018.98
2017-06-17T08:14:08.469Z,1018.95
2017-06-17T08:15:03.496Z,1018.97
2017-06-17T08:15:52.572Z,1018.94
2017-06-17T08:16:52.588Z,1018.92
2017-06-17T08:17:47.624Z,1018.95
2017-06-17T08:18:42.650Z,1018.93
2017-06-17T08:19:42.774Z,1018.94
2017-06-17T08:20:36.788Z,1018.93
2017-06-17T08:21:30.801Z,1018.94
2017-06-17T08:22:24.872Z,1018.92
2017-06-17T08:23:19.925Z,1018.94
2017-06-17T08:24:13.957Z,1018.96
2017-06-17T08:25:03.065Z,1019.00
2017-06-17T08:25:52.080Z,1018.93
2017-06-17T08:26:41.057Z,1018.99
2017-06-17T08:27:36.177Z,1018.95
2017-06-17T08:28:31.214Z,1018.91
2017-06-17T08:29:31.260Z,1018.92
2017-06-17T08:30:25.328Z,1018.92
2017-06-17T08:31:25.500Z,1018.93
2017-06-17T08:32:19.425Z,1018.96
2017-06-17T08:33:19.442Z,1018.96
2017-06-17T08:34:14.530Z,1019.00
2017-06-17T08:35:08.579Z,1019.04
2017-06-17T08:35:56.683Z,1019.05
2017-06-17T08:36:45.678Z,1019.08
2017-06-17T08:37:39.689Z,1019.13
2017-06-17T08:38:33.745Z,1019.14
2017-06-17T08:39:27.838Z,1019.12
2017-06-17T08:40:27.776Z,1019.13
2017-06-17T08:41:21.925Z,1019.14
2017-06-17T08:42:15.899Z,1019.14
2017-06-17T08:43:11.011Z,1019.14
2017-06-17T08:44:06.018Z,1019.17
2017-06-17T08:45:00.090Z,1019.18
2017-06-17T08:45:55.118Z,1019.23
2017-06-17T08:46:49.139Z,1019.27
2017-06-17T08:47:43.191Z,1019.19
2017-06-17T08:48:32.277Z,1019.18
2017-06-17T08:49:27.314Z,1019.20
2017-06-17T08:50:16.447Z,1019.20
2017-06-17T08:51:11.434Z,1019.19
2017-06-17T08:52:00.632Z,1019.18
2017-06-17T08:52:48.488Z,1019.19
2017-06-17T08:53:43.586Z,1019.21
2017-06-17T08:54:38.638Z,1019.18
2017-06-17T08:55:32.676Z,1019.15
2017-06-17T08:56:27.754Z,1019.13
2017-06-17T08:57:21.809Z,1019.15
2017-06-17T08:58:10.803Z,1019.12
2017-06-17T08:58:59.913Z,1019.16
2017-06-17T08:59:53.921Z,1019.12
2017-06-17T09:00:54.999Z,1019.13
2017-06-17T09:01:49.056Z,1019.16
2017-06-17T09:02:49.087Z,1019.17
2017-06-17T09:03:37.138Z,1019.13
2017-06-17T09:04:32.159Z,1019.15
2017-06-17T09:05:26.212Z,1019.13
2017-06-17T09:06:27.332Z,1019.16
2017-06-17T09:07:16.329Z,1019.08
2017-06-17T09:08:11.517Z,1019.14
2017-06-17T09:09:06.443Z,1019.21
2017-06-17T09:09:55.483Z,1019.19
2017-06-17T09:11:01.545Z,1019.12
2017-06-17T09:11:56.589Z,1019.12
2017-06-17T09:12:50.625Z,1019.10
2017-06-17T09:13:50.697Z,1019.14
2017-06-17T09:14:44.678Z,1019.14
2017-06-17T09:15:44.714Z,1019.21
2017-06-17T09:16:33.834Z,1019.19
2017-06-17T09:17:33.868Z,1019.14
2017-06-17T09:18:33.943Z,1019.17
2017-06-17T09:19:33.957Z,1019.19
2017-06-17T09:20:33.566Z,1019.20
2017-06-17T09:21:28.619Z,1019.14
2017-06-17T09:22:28.675Z,1019.10
2017-06-17T09:23:22.681Z,1019.12
2017-06-17T09:24:11.866Z,1019.13
2017-06-17T09:25:06.024Z,1019.18
2017-06-17T09:26:00.189Z,1019.12
2017-06-17T09:26:53.974Z,1019.18
2017-06-17T09:27:43.143Z,1019.17
2017-06-17T09:28:37.163Z,1019.20
2017-06-17T09:29:37.096Z,1019.14
2017-06-17T09:30:31.190Z,1019.13
2017-06-17T09:31:25.437Z,1019.17
2017-06-17T09:32:20.713Z,1019.14
2017-06-17T09:33:14.636Z,1019.18
2017-06-17T09:34:03.752Z,1019.17
2017-06-17T09:34:57.388Z,1019.15
2017-06-17T09:35:45.634Z,1019.17
2017-06-17T09:36:34.884Z,1019.17
2017-06-17T09:37:28.546Z,1019.05
2017-06-17T09:38:28.952Z,1019.08
2017-06-17T09:39:23.038Z,1019.12
2017-06-17T09:40:23.068Z,1019.15
2017-06-17T09:41:12.256Z,1019.21
2017-06-17T09:42:06.242Z,1019.18
2017-06-17T09:43:01.181Z,1019.22
2017-06-17T09:43:55.283Z,1019.21
2017-06-17T09:44:55.366Z,1019.39
2017-06-17T09:45:43.427Z,1019.36
2017-06-17T09:46:43.479Z,1019.29
2017-06-17T09:47:32.482Z,1019.27
2017-06-17T09:48:21.543Z,1019.24
2017-06-17T09:49:15.620Z,1019.29
2017-06-17T09:50:10.667Z,1019.28
2017-06-17T09:51:04.715Z,1019.29
2017-06-17T09:51:53.809Z,1019.29
2017-06-17T09:52:48.858Z,1019.29
2017-06-17T09:53:42.869Z,1019.23
2017-06-17T09:54:36.906Z,1019.27
2017-06-17T09:55:24.979Z,1019.19
2017-06-17T09:56:19.037Z,1019.22
2017-06-17T09:57:13.300Z,1019.13
2017-06-17T09:58:01.118Z,1019.18
2017-06-17T09:58:49.193Z,1019.21
2017-06-17T09:59:43.208Z,1019.20
2017-06-17T10:00:37.298Z,1019.18
2017-06-17T10:01:25.319Z,1019.18
2017-06-17T10:02:14.379Z,1019.19
2017-06-17T10:03:09.463Z,1019.16
2017-06-17T10:03:57.504Z,1019.13
2017-06-17T10:04:57.594Z,1019.15
2017-06-17T10:05:57.535Z,1019.22
2017-06-17T10:06:51.622Z,1019.17
2017-06-17T10:07:51.702Z,1019.20
2017-06-17T10:08:40.725Z,1019.17
2017-06-17T10:09:29.708Z,1019.25
2017-06-17T10:10:23.767Z,1019.24
2017-06-17T10:11:12.838Z,1019.21
2017-06-17T10:12:06.905Z,1019.25
2017-06-17T10:12:56.202Z,1019.25
2017-06-17T10:13:50.995Z,1019.30
2017-06-17T10:14:45.062Z,1019.28
2017-06-17T10:15:39.105Z,1019.32
2017-06-17T10:16:34.127Z,1019.30
2017-06-17T10:17:23.187Z,1019.34
2017-06-17T10:18:23.266Z,1019.33
2017-06-17T10:19:23.289Z,1019.39
2017-06-17T10:20:18.350Z,1019.43
2017-06-17T10:21:06.317Z,1019.42
2017-06-17T10:22:01.363Z,1019.33
2017-06-17T10:22:55.459Z,1019.34
2017-06-17T10:23:49.208Z,1019.36
2017-06-17T10:24:37.393Z,1019.35
2017-06-17T10:25:25.209Z,1019.32
2017-06-17T10:26:25.565Z,1019.33
2017-06-17T10:27:14.599Z,1019.32
2017-06-17T10:28:08.377Z,1019.36
2017-06-17T10:29:03.475Z,1019.39
2017-06-17T10:29:58.468Z,1019.42
2017-06-17T10:30:47.697Z,1019.45
2017-06-17T10:31:41.938Z,1019.48
2017-06-17T10:32:36.922Z,1019.40
2017-06-17T10:33:36.668Z,1019.36
2017-06-17T10:34:30.710Z,1019.38
2017-06-17T10:35:24.902Z,1019.44
2017-06-17T10:36:19.355Z,1019.46
2017-06-17T10:37:19.054Z,1019.55
2017-06-17T10:38:13.929Z,1019.56
2017-06-17T10:39:08.224Z,1019.50
2017-06-17T10:40:02.400Z,1019.55
2017-06-17T10:40:56.475Z,1019.59
2017-06-17T10:41:57.511Z,1019.59
2017-06-17T10:42:46.591Z,1019.67
2017-06-17T10:43:41.642Z,1019.61
2017-06-17T10:44:35.632Z,1019.64
2017-06-17T10:45:24.797Z,1019.57
2017-06-17T10:46:12.756Z,1019.64
2017-06-17T10:47:07.836Z,1019.60
2017-06-17T10:47:56.933Z,1019.53
2017-06-17T10:48:50.915Z,1019.50
2017-06-17T10:49:46.024Z,1019.55
2017-06-17T10:50:40.051Z,1019.55
2017-06-17T10:51:35.127Z,1019.52
2017-06-17T10:52:29.728Z,1019.52